Terminal Aerodrome Forecast
Issued by NWS Greer, SC

Current Version | Previous Version | Text Only | Print | Product List | Glossary On
Versions: 1 2 3 4 5 6 7 8 9 10 11 12 13 14 15 16 17 18 19 20 21 22 23 24 25 26 27 28 29 30 31
000
FTUS42 KGSP 302321
TAFAVL
TAF
KAVL 302321Z 3100/3124 33013G23KT P6SM FEW250
      TEMPO 3100/3104 34010KT
     FM310400 33009KT P6SM FEW230
     FM311500 33005KT P6SM FEW200=

USA.gov is the U.S. government's official web portal to all federal, state and local government web resources and services.